Vanquish — PHCU — position and weather

sailwx.info

Track history (hours):
 
Tides and Currents Weather Stations Pressure Air Temp Water Temp Dewpoint Dewpoint Depression Visibility Wind Speed Wind Dir Waves Ship Positions

Vanquish

Last reported at 2017-Apr-27 11:00 UTC. Time now 2017-Apr-27 11:05 UTC.
Position N 51°41' E 004°36'.

MMSI: 246138952.

Date/timePositionNaut miles runAvg speedWind from/ knotsBaromVisibWave heightAir tempDewpointWater temp
2017-Apr-27 11:00N 51°41' E 004°36'0 0.0
2017-Apr-27 10:31N 51°41' E 004°36'0 0.0
2017-Apr-27 10:00N 51°41' E 004°36'0 0.0
2017-Apr-27 09:31N 51°41' E 004°36'0 0.0
2017-Apr-27 09:00N 51°41' E 004°36'0 0.0
2017-Apr-27 08:30N 51°41' E 004°36'0 0.3
2017-Apr-27 08:00N 51°41' E 004°36'0 0.0
2017-Apr-27 07:30N 51°41' E 004°36'0 0.0
2017-Apr-27 07:01N 51°41' E 004°36'0 0.0
2017-Apr-27 06:30N 51°41' E 004°36'0 0.0
2017-Apr-27 06:00N 51°41' E 004°36'2 4.7
2017-Apr-27 05:30N 51°43' E 004°37'5 9.4
2017-Apr-27 05:00N 51°48' E 004°37'4 8.7
2017-Apr-27 04:30N 51°50' E 004°31'510.4
2017-Apr-27 04:00N 51°51' E 004°23'5 9.7
2017-Apr-27 03:30N 51°54' E 004°17'714.8
2017-Apr-27 03:00N 51°58' E 004°08'611.3
2017-Apr-27 02:30N 52°00' E 003°59'815.1
2017-Apr-27 02:00N 52°02' E 003°47'7613.9
2017-Apr-26 20:32N 52°42' E 002°01'115.8
2017-Apr-26 20:30N 52°42' E 002°00'816.1
2017-Apr-26 20:00N 52°46' E 001°49'816.6
2017-Apr-26 19:30N 52°51' E 001°38'816.4
2017-Apr-26 19:00N 52°55' E 001°26'816.2
2017-Apr-26 18:30N 52°59' E 001°14'5514.6
2017-Apr-26 14:46N 53°34' E 000°04'3 9.4
2017-Apr-26 14:26N 53°35' W 000°01'7 7.3
2017-Apr-26 13:30N 53°38' W 000°11'0 0.2
2017-Apr-26 12:59N 53°38' W 000°12'0 0.0
2017-Apr-26 12:30N 53°38' W 000°12'0 0.0
2017-Apr-26 12:00N 53°38' W 000°12'0 0.0
2017-Apr-26 11:29N 53°38' W 000°12'0 0.0
2017-Apr-26 10:57N 53°38' W 000°12'0 0.0
2017-Apr-26 10:15N 53°38' W 000°12'0 0.0
2017-Apr-26 09:58N 53°38' W 000°12'0 0.0
2017-Apr-26 09:30N 53°38' W 000°12'0 0.0
2017-Apr-26 08:59N 53°38' W 000°12'0 0.0
2017-Apr-26 08:29N 53°38' W 000°12'0 0.0
2017-Apr-26 07:48N 53°38' W 000°12'0 0.0
2017-Apr-26 07:20N 53°38' W 000°12'0 0.1
2017-Apr-26 07:00N 53°38' W 000°12'0 0.6
2017-Apr-26 06:30N 53°38' W 000°11'5 9.1
2017-Apr-26 06:00N 53°37' W 000°04'5411.0
2017-Apr-26 01:06N 53°03' E 001°06'215.6
2017-Apr-26 01:00N 53°02' E 001°08'815.6
2017-Apr-26 00:31N 52°59' E 001°20'815.4
2017-Apr-26 00:00N 52°57' E 001°32'714.9
2017-Apr-25 23:30N 52°52' E 001°42'714.1
2017-Apr-25 23:00N 52°49' E 001°52'6311.7
2017-Apr-25 17:37N 52°15' E 003°20'311.4
2017-Apr-25 17:21N 52°13' E 003°24'411.8
2017-Apr-25 17:00N 52°10' E 003°29'713.0
2017-Apr-25 16:30N 52°07' E 003°38'612.9
2017-Apr-25 16:00N 52°05' E 003°48'612.3
2017-Apr-25 15:30N 52°02' E 003°57'611.7
2017-Apr-25 15:00N 51°59' E 004°05'1111.1
2017-Apr-25 14:00N 51°53' E 004°20'4 7.2
2017-Apr-25 13:31N 51°51' E 004°24'4 7.2
2017-Apr-25 13:00N 51°50' E 004°30'4 7.7
2017-Apr-25 12:31N 51°48' E 004°35'5 9.4
2017-Apr-25 12:00N 51°44' E 004°38'3 6.5
2017-Apr-25 11:30N 51°41' E 004°36'0 0.0
2017-Apr-25 11:00N 51°41' E 004°36'0 0.0
2017-Apr-25 10:30N 51°41' E 004°36'0 0.0
2017-Apr-25 10:00N 51°41' E 004°36'0 0.0
2017-Apr-25 09:30N 51°41' E 004°36'0 0.0
2017-Apr-25 09:00N 51°41' E 004°36'0 0.0
2017-Apr-25 08:30N 51°41' E 004°36'0 0.0
2017-Apr-25 08:00N 51°41' E 004°36'0 0.0
2017-Apr-25 07:30N 51°41' E 004°36'0 0.0
2017-Apr-25 07:00N 51°41' E 004°36'0 0.0
2017-Apr-25 06:29N 51°41' E 004°36'0 0.0
2017-Apr-25 06:00N 51°41' E 004°36'0 0.0
2017-Apr-25 05:30N 51°41' E 004°36'0 0.0
2017-Apr-25 05:00N 51°41' E 004°36'0 0.0
2017-Apr-25 04:30N 51°41' E 004°36'0 0.0
2017-Apr-25 04:00N 51°41' E 004°36'0 0.0
2017-Apr-25 03:30N 51°41' E 004°36'0 0.0
2017-Apr-25 03:00N 51°41' E 004°36'0 0.0
2017-Apr-25 02:30N 51°41' E 004°36'0 0.0
2017-Apr-25 02:00N 51°41' E 004°36'0 0.0
2017-Apr-25 01:30N 51°41' E 004°36'0 0.0
2017-Apr-25 01:00N 51°41' E 004°36'0 0.0
2017-Apr-25 00:30N 51°41' E 004°36'0 0.0
2017-Apr-25 00:00N 51°41' E 004°36'0 0.0
2017-Apr-24 23:30N 51°41' E 004°36'0 0.0
2017-Apr-24 23:00N 51°41' E 004°36'0 0.0
2017-Apr-24 22:30N 51°41' E 004°36'0 0.3
2017-Apr-24 22:00N 51°41' E 004°36'0 0.0
2017-Apr-24 21:30N 51°41' E 004°36'0 0.0
2017-Apr-24 21:00N 51°41' E 004°36'0 0.0
2017-Apr-24 20:30N 51°41' E 004°36'0 0.0
2017-Apr-24 20:00N 51°41' E 004°36'0 0.0
2017-Apr-24 19:28N 51°41' E 004°36'0 0.0
2017-Apr-24 19:00N 51°41' E 004°36'0 0.0
2017-Apr-24 18:30N 51°41' E 004°36'0 0.0
2017-Apr-24 18:00N 51°41' E 004°36'0 0.0
2017-Apr-24 17:30N 51°41' E 004°36'0 0.0
2017-Apr-24 17:00N 51°41' E 004°36'0 0.0
2017-Apr-24 16:30N 51°41' E 004°36'0 0.0
2017-Apr-24 16:00N 51°41' E 004°36'0 0.0
2017-Apr-24 15:30N 51°41' E 004°36'0 0.0
2017-Apr-24 15:00N 51°41' E 004°36'0 0.0
2017-Apr-24 14:30N 51°41' E 004°36'0 0.0
2017-Apr-24 13:30N 51°41' E 004°36'0 0.0
2017-Apr-24 13:00N 51°41' E 004°36'0 0.0
2017-Apr-24 12:30N 51°41' E 004°36'0 0.0
2017-Apr-24 12:00N 51°41' E 004°36'0 0.0
2017-Apr-24 11:30N 51°41' E 004°36'0 0.0
2017-Apr-24 11:00N 51°41' E 004°36'0 0.0
2017-Apr-24 10:30N 51°41' E 004°36'0 0.0
2017-Apr-24 10:00N 51°41' E 004°36'0 0.1
2017-Apr-24 09:30N 51°41' E 004°36'0 0.1
2017-Apr-24 09:00N 51°41' E 004°36'0 0.0
2017-Apr-24 08:30N 51°41' E 004°36'0 0.0
2017-Apr-24 08:01N 51°41' E 004°36'0 0.0
2017-Apr-24 07:30N 51°41' E 004°36'0 0.0
2017-Apr-24 07:00N 51°41' E 004°36'0 0.0
2017-Apr-24 06:30N 51°41' E 004°36'0 0.0
2017-Apr-24 06:00N 51°41' E 004°36'0 0.0
2017-Apr-24 05:30N 51°41' E 004°36'0 0.0
2017-Apr-24 05:00N 51°41' E 004°36'0 0.0
2017-Apr-24 04:30N 51°41' E 004°36'0 0.0
2017-Apr-24 04:00N 51°41' E 004°36'0 0.1
2017-Apr-24 03:30N 51°41' E 004°36'0 0.1
2017-Apr-24 03:00N 51°41' E 004°36'0 0.0
2017-Apr-24 02:30N 51°41' E 004°36'0 0.0
2017-Apr-24 02:00N 51°41' E 004°36'0 0.0
2017-Apr-24 01:30N 51°41' E 004°36'0 0.0
2017-Apr-24 01:00N 51°41' E 004°36'0 0.0
2017-Apr-24 00:30N 51°41' E 004°36'0 0.0
2017-Apr-24 00:00N 51°41' E 004°36'0 0.0
2017-Apr-23 23:30N 51°41' E 004°36'0 0.0
2017-Apr-23 23:00N 51°41' E 004°36'0 0.0
2017-Apr-23 22:30N 51°41' E 004°36'0 0.0
2017-Apr-23 22:00N 51°41' E 004°36'0 0.0
2017-Apr-23 21:30N 51°41' E 004°36'0 0.0
2017-Apr-23 21:00N 51°41' E 004°36'0 0.0
2017-Apr-23 20:30N 51°41' E 004°36'0 0.0
2017-Apr-23 20:00N 51°41' E 004°36'0 0.0
2017-Apr-23 19:30N 51°41' E 004°36'0 0.0
2017-Apr-23 19:00N 51°41' E 004°36'0 0.0
2017-Apr-23 18:30N 51°41' E 004°36'0 0.0
2017-Apr-23 18:00N 51°41' E 004°36'0 0.0
2017-Apr-23 17:30N 51°41' E 004°36'0 0.0
2017-Apr-23 17:00N 51°41' E 004°36'0 0.0
2017-Apr-23 16:30N 51°41' E 004°36'0 0.0
2017-Apr-23 16:00N 51°41' E 004°36'0 0.0
2017-Apr-23 15:30N 51°41' E 004°36'0 0.0
2017-Apr-23 15:00N 51°41' E 004°36'0 0.0
2017-Apr-23 14:00N 51°41' E 004°36'0 0.0
2017-Apr-23 13:30N 51°41' E 004°36'0 0.0
2017-Apr-23 13:00N 51°41' E 004°36'0 0.0
2017-Apr-23 12:30N 51°41' E 004°36'0 0.0
2017-Apr-23 12:00N 51°41' E 004°36'0 0.0
2017-Apr-23 11:30N 51°41' E 004°36'0 0.0
2017-Apr-23 11:00N 51°41' E 004°36'0 0.0
2017-Apr-23 10:30N 51°41' E 004°36'0 0.0
2017-Apr-23 10:00N 51°41' E 004°36'0 0.0
2017-Apr-23 09:30N 51°41' E 004°36'0 0.0
2017-Apr-23 09:00N 51°41' E 004°36'0 0.0
2017-Apr-23 08:30N 51°41' E 004°36'0 0.0
2017-Apr-23 08:00N 51°41' E 004°36'0 0.0
2017-Apr-23 07:30N 51°41' E 004°36'0 0.0
2017-Apr-23 06:59N 51°41' E 004°36'0 0.0
2017-Apr-23 06:30N 51°41' E 004°36'0 0.0
2017-Apr-23 06:00N 51°41' E 004°36'0 0.0
2017-Apr-23 05:30N 51°41' E 004°36'0 0.0
2017-Apr-23 05:00N 51°41' E 004°36'0 0.0
2017-Apr-23 04:30N 51°41' E 004°36'0 0.0
2017-Apr-23 04:00N 51°41' E 004°36'0 0.0
2017-Apr-23 03:30N 51°41' E 004°36'0 0.0
2017-Apr-23 03:00N 51°41' E 004°36'0 0.0
2017-Apr-23 02:30N 51°41' E 004°36'0 0.0
2017-Apr-23 02:00N 51°41' E 004°36'0 0.0
2017-Apr-23 01:30N 51°41' E 004°36'0 0.0
2017-Apr-23 01:00N 51°41' E 004°36'0 0.0
2017-Apr-23 00:30N 51°41' E 004°36'0 0.0
2017-Apr-23 00:00N 51°41' E 004°36'0 0.0
2017-Apr-22 23:30N 51°41' E 004°36'0 0.0
2017-Apr-22 23:00N 51°41' E 004°36'0 0.0
2017-Apr-22 22:29N 51°41' E 004°36'0 0.0
2017-Apr-22 22:00N 51°41' E 004°36'0 0.0
2017-Apr-22 21:28N 51°41' E 004°36'0 0.0
2017-Apr-22 20:58N 51°41' E 004°36'0 0.0
2017-Apr-22 20:27N 51°41' E 004°36'0 0.0
2017-Apr-22 19:58N 51°41' E 004°36'0 0.0
2017-Apr-22 19:30N 51°41' E 004°36'0 0.0
2017-Apr-22 19:00N 51°41' E 004°36'0 0.0
2017-Apr-22 18:30N 51°41' E 004°36'0 0.2
2017-Apr-22 18:00N 51°41' E 004°36'0 0.0
2017-Apr-22 17:30N 51°41' E 004°36'0 0.0
2017-Apr-22 17:00N 51°41' E 004°36'0 0.0
2017-Apr-22 16:30N 51°41' E 004°36'0 0.0
2017-Apr-22 16:00N 51°41' E 004°36'0 0.0
2017-Apr-22 15:30N 51°41' E 004°36'0 0.0
2017-Apr-22 14:59N 51°41' E 004°36'0 0.0
2017-Apr-22 14:28N 51°41' E 004°36'0 0.0
2017-Apr-22 13:30N 51°41' E 004°36'0 0.3
2017-Apr-22 13:00N 51°41' E 004°36'0 0.0
2017-Apr-22 12:30N 51°41' E 004°36'0 0.0
2017-Apr-22 12:00N 51°41' E 004°36'0 0.0
2017-Apr-22 11:30N 51°41' E 004°36'0 0.0
2017-Apr-22 11:00N 51°41' E 004°36'0 0.0
2017-Apr-22 10:30N 51°41' E 004°36'0 0.1
2017-Apr-22 10:00N 51°41' E 004°36'3 5.7
2017-Apr-22 09:30N 51°44' E 004°38'4 8.6
2017-Apr-22 09:01N 51°48' E 004°37'4 8.5
2017-Apr-22 08:30N 51°50' E 004°31'5 9.9
2017-Apr-22 08:00N 51°51' E 004°23'4 8.4
2017-Apr-22 07:30N 51°54' E 004°19'612.6
2017-Apr-22 07:00N 51°57' E 004°10'713.3
2017-Apr-22 06:30N 51°60' E 004°00'713.5
2017-Apr-22 06:00N 52°01' E 003°49'7414.2
2017-Apr-22 00:48N 52°41' E 002°07'414.2
2017-Apr-22 00:30N 52°43' E 002°02'713.6
2017-Apr-22 00:01N 52°46' E 001°52'713.1
2017-Apr-21 23:31N 52°50' E 001°43'612.6
2017-Apr-21 23:00N 52°53' E 001°34'612.5
2017-Apr-21 22:31N 52°56' E 001°25'612.7
2017-Apr-21 22:01N 52°59' E 001°15'5613.0
2017-Apr-21 17:41N 53°35' E 000°03'316.9
2017-Apr-21 17:30N 53°36' W 000°02'6 7.4
2017-Apr-21 16:43N 53°38' W 000°11'0 0.6
2017-Apr-21 16:30N 53°38' W 000°12'0 0.0
2017-Apr-21 16:00N 53°38' W 000°12'0 0.0
2017-Apr-21 15:30N 53°38' W 000°12'0 0.0
2017-Apr-21 15:00N 53°38' W 000°12'0 0.0
2017-Apr-21 14:30N 53°38' W 000°12'0 0.0
2017-Apr-21 13:30N 53°38' W 000°12'0 0.0
2017-Apr-21 13:00N 53°38' W 000°12'0 0.0
2017-Apr-21 12:30N 53°38' W 000°12'0 0.0
2017-Apr-21 12:00N 53°38' W 000°12'0 0.0
2017-Apr-21 11:30N 53°38' W 000°12'0 0.0
2017-Apr-21 11:00N 53°38' W 000°12'0 0.0
2017-Apr-21 10:30N 53°38' W 000°12'0 0.0
2017-Apr-21 10:00N 53°38' W 000°12'0 0.0
2017-Apr-21 09:30N 53°38' W 000°12'0 0.0
2017-Apr-21 09:00N 53°38' W 000°12'0 0.0
2017-Apr-21 08:30N 53°38' W 000°12'0 0.3
2017-Apr-21 08:00N 53°38' W 000°11'1 1.5
2017-Apr-21 07:30N 53°38' W 000°10'510.3
2017-Apr-21 07:00N 53°36' W 000°02'712.7
2017-Apr-21 06:25N 53°33' E 000°09'47 9.2
2017-Apr-21 01:18N 53°02' E 001°08'3 9.8
2017-Apr-21 01:00N 53°01' E 001°13'5 9.9
2017-Apr-21 00:30N 52°60' E 001°20'5 9.9
2017-Apr-21 00:00N 52°58' E 001°28'510.1
2017-Apr-20 23:30N 52°55' E 001°35'611.0
2017-Apr-20 23:00N 52°52' E 001°43'713.0
2017-Apr-20 22:31N 52°49' E 001°52'714.0
2017-Apr-20 21:58N 52°45' E 002°02'6813.6
2017-Apr-20 16:55N 52°07' E 003°36'613.3
2017-Apr-20 16:30N 52°05' E 003°45'713.5
2017-Apr-20 16:00N 52°03' E 003°55'714.1
2017-Apr-20 15:30N 51°59' E 004°05'714.3
2017-Apr-20 15:00N 51°55' E 004°14'10 9.9
2017-Apr-20 14:00N 51°50' E 004°28'4 8.6
2017-Apr-20 13:30N 51°49' E 004°35'4 8.5
2017-Apr-20 13:00N 51°45' E 004°38'4 7.6
2017-Apr-20 12:30N 51°41' E 004°36'0 0.9
2017-Apr-20 12:00N 51°41' E 004°36'0 0.0
2017-Apr-20 11:28N 51°41' E 004°36'0 0.0
2017-Apr-20 11:00N 51°41' E 004°36'0 0.0
2017-Apr-20 10:30N 51°41' E 004°36'0 0.0
2017-Apr-20 09:59N 51°41' E 004°36'0 0.0
2017-Apr-20 09:30N 51°41' E 004°36'0 0.0
2017-Apr-20 09:00N 51°41' E 004°36'0 0.0
2017-Apr-20 07:58N 51°41' E 004°36'0 0.0
2017-Apr-20 07:23N 51°41' E 004°36'0 0.0
2017-Apr-20 06:59N 51°41' E 004°36'1 2.2
2017-Apr-20 06:30N 51°42' E 004°36'3 6.9
2017-Apr-20 06:00N 51°45' E 004°38'4 7.7
2017-Apr-20 05:30N 51°49' E 004°34'4 8.8
2017-Apr-20 05:01N 51°50' E 004°28'5 9.9
2017-Apr-20 04:31N 51°52' E 004°20'4 8.3
2017-Apr-20 04:01N 51°55' E 004°15'612.2
2017-Apr-20 03:31N 51°58' E 004°08'612.4
2017-Apr-20 03:01N 51°60' E 003°58'713.2
2017-Apr-20 02:31N 52°02' E 003°48'7414.0
2017-Apr-19 21:16N 52°41' E 002°06'413.7
2017-Apr-19 21:00N 52°43' E 002°01'713.5
2017-Apr-19 20:30N 52°47' E 001°52'713.1
2017-Apr-19 20:00N 52°50' E 001°42'612.8
2017-Apr-19 19:30N 52°53' E 001°33'612.8
2017-Apr-19 19:00N 52°56' E 001°23'713.1
2017-Apr-19 18:30N 52°59' E 001°14'5012.8
2017-Apr-19 14:34N 53°33' E 000°11'114.0
2017-Apr-19 14:30N 53°33' E 000°09'1212.3
2017-Apr-19 13:30N 53°38' W 000°09'1 2.3
2017-Apr-19 12:59N 53°38' W 000°11'0 0.3
2017-Apr-19 12:30N 53°38' W 000°12'0 0.0
2017-Apr-19 12:00N 53°38' W 000°12'0 0.0
2017-Apr-19 11:30N 53°38' W 000°12'0 0.0
2017-Apr-19 11:00N 53°38' W 000°12'0 0.0
2017-Apr-19 10:30N 53°38' W 000°12'0 0.0
2017-Apr-19 09:59N 53°38' W 000°12'0 0.0
2017-Apr-19 09:14N 53°38' W 000°12'0 0.0
2017-Apr-19 08:57N 53°38' W 000°12'0 0.0
2017-Apr-19 08:30N 53°38' W 000°12'0 0.0
2017-Apr-19 08:00N 53°38' W 000°12'0 0.0
2017-Apr-19 07:30N 53°38' W 000°12'0 0.0
2017-Apr-19 06:59N 53°38' W 000°12'0 0.0
2017-Apr-19 06:30N 53°38' W 000°12'0 0.0
2017-Apr-19 06:00N 53°38' W 000°12'0 0.0
2017-Apr-19 05:30N 53°38' W 000°12'0 0.0
2017-Apr-19 05:00N 53°38' W 000°12'0 0.3
2017-Apr-19 04:30N 53°38' W 000°11'1 1.2
2017-Apr-19 04:00N 53°38' W 000°10'5 9.1
2017-Apr-19 03:30N 53°36' W 000°03'910.3
2017-Apr-19 02:39N 53°33' E 000°10'4612.6
2017-Apr-18 22:59N 53°02' E 001°08'612.8
2017-Apr-18 22:30N 53°00' E 001°18'612.9
2017-Apr-18 22:00N 52°57' E 001°27'713.3
2017-Apr-18 21:30N 52°54' E 001°37'714.1
2017-Apr-18 21:00N 52°51' E 001°47'4214.1
2017-Apr-18 18:01N 52°28' E 002°46'113.6
2017-Apr-18 17:55N 52°27' E 002°48'613.1
2017-Apr-18 17:29N 52°24' E 002°55'612.8
2017-Apr-18 16:59N 52°21' E 003°04'612.5
2017-Apr-18 16:30N 52°17' E 003°12'612.3
2017-Apr-18 15:59N 52°13' E 003°21'612.3
2017-Apr-18 15:28N 52°10' E 003°29'612.6
2017-Apr-18 15:00N 52°07' E 003°37'1413.7
2017-Apr-18 14:00N 52°02' E 003°58'714.5
2017-Apr-18 13:30N 51°58' E 004°08'713.7
2017-Apr-18 13:00N 51°54' E 004°17'510.0
2017-Apr-18 12:30N 51°51' E 004°23'611.1
2017-Apr-18 12:00N 51°50' E 004°32'5 9.3
2017-Apr-18 11:30N 51°47' E 004°38'5 9.5
2017-Apr-18 11:00N 51°42' E 004°37'1 2.7
2017-Apr-18 10:30N 51°41' E 004°36'0 0.0
2017-Apr-18 10:00N 51°41' E 004°36'0 0.0
2017-Apr-18 01:41N 51°41' E 004°36'0 0.0
2017-Apr-18 01:20N 51°41' E 004°36'0 0.0
2017-Apr-18 00:59N 51°41' E 004°36'0 0.0
2017-Apr-18 00:14N 51°41' E 004°36'0 0.0
2017-Apr-17 23:56N 51°41' E 004°36'0 0.0
2017-Apr-17 21:29N 51°41' E 004°36'0 0.0
2017-Apr-17 16:56N 51°41' E 004°36'  
Track history (hours):
 
Tides and Currents Weather Stations Pressure Air Temp Water Temp Dewpoint Dewpoint Depression Visibility Wind Speed Wind Dir Waves Ship Positions

Vanquish

Last reported at 2017-Apr-27 11:00 UTC. Time now 2017-Apr-27 11:05 UTC.
Position N 51°41' E 004°36'.

MMSI: 246138952.

Date/timePositionNaut miles runAvg speedWind from/ knotsBaromVisibWave heightAir tempDewpointWater temp
2017-Apr-27 11:00N 51°41' E 004°36'0 0.0
2017-Apr-27 10:31N 51°41' E 004°36'0 0.0
2017-Apr-27 10:00N 51°41' E 004°36'0 0.0
2017-Apr-27 09:31N 51°41' E 004°36'0 0.0
2017-Apr-27 09:00N 51°41' E 004°36'0 0.0
2017-Apr-27 08:30N 51°41' E 004°36'0 0.3
2017-Apr-27 08:00N 51°41' E 004°36'0 0.0
2017-Apr-27 07:30N 51°41' E 004°36'0 0.0
2017-Apr-27 07:01N 51°41' E 004°36'0 0.0
2017-Apr-27 06:30N 51°41' E 004°36'0 0.0
2017-Apr-27 06:00N 51°41' E 004°36'2 4.7
2017-Apr-27 05:30N 51°43' E 004°37'5 9.4
2017-Apr-27 05:00N 51°48' E 004°37'4 8.7
2017-Apr-27 04:30N 51°50' E 004°31'510.4
2017-Apr-27 04:00N 51°51' E 004°23'5 9.7
2017-Apr-27 03:30N 51°54' E 004°17'714.8
2017-Apr-27 03:00N 51°58' E 004°08'611.3
2017-Apr-27 02:30N 52°00' E 003°59'815.1
2017-Apr-27 02:00N 52°02' E 003°47'7613.9
2017-Apr-26 20:32N 52°42' E 002°01'115.8
2017-Apr-26 20:30N 52°42' E 002°00'816.1
2017-Apr-26 20:00N 52°46' E 001°49'816.6
2017-Apr-26 19:30N 52°51' E 001°38'816.4
2017-Apr-26 19:00N 52°55' E 001°26'816.2
2017-Apr-26 18:30N 52°59' E 001°14'5514.6
2017-Apr-26 14:46N 53°34' E 000°04'3 9.4
2017-Apr-26 14:26N 53°35' W 000°01'7 7.3
2017-Apr-26 13:30N 53°38' W 000°11'0 0.2
2017-Apr-26 12:59N 53°38' W 000°12'0 0.0
2017-Apr-26 12:30N 53°38' W 000°12'0 0.0
2017-Apr-26 12:00N 53°38' W 000°12'0 0.0
2017-Apr-26 11:29N 53°38' W 000°12'0 0.0
2017-Apr-26 10:57N 53°38' W 000°12'0 0.0
2017-Apr-26 10:15N 53°38' W 000°12'0 0.0
2017-Apr-26 09:58N 53°38' W 000°12'0 0.0
2017-Apr-26 09:30N 53°38' W 000°12'0 0.0
2017-Apr-26 08:59N 53°38' W 000°12'0 0.0
2017-Apr-26 08:29N 53°38' W 000°12'0 0.0
2017-Apr-26 07:48N 53°38' W 000°12'0 0.0
2017-Apr-26 07:20N 53°38' W 000°12'0 0.1
2017-Apr-26 07:00N 53°38' W 000°12'0 0.6
2017-Apr-26 06:30N 53°38' W 000°11'5 9.1
2017-Apr-26 06:00N 53°37' W 000°04'5411.0
2017-Apr-26 01:06N 53°03' E 001°06'215.6
2017-Apr-26 01:00N 53°02' E 001°08'815.6
2017-Apr-26 00:31N 52°59' E 001°20'815.4
2017-Apr-26 00:00N 52°57' E 001°32'714.9
2017-Apr-25 23:30N 52°52' E 001°42'714.1
2017-Apr-25 23:00N 52°49' E 001°52'6311.7
2017-Apr-25 17:37N 52°15' E 003°20'311.4
2017-Apr-25 17:21N 52°13' E 003°24'411.8
2017-Apr-25 17:00N 52°10' E 003°29'713.0
2017-Apr-25 16:30N 52°07' E 003°38'612.9
2017-Apr-25 16:00N 52°05' E 003°48'612.3
2017-Apr-25 15:30N 52°02' E 003°57'611.7
2017-Apr-25 15:00N 51°59' E 004°05'1111.1
2017-Apr-25 14:00N 51°53' E 004°20'4 7.2
2017-Apr-25 13:31N 51°51' E 004°24'4 7.2
2017-Apr-25 13:00N 51°50' E 004°30'4 7.7
2017-Apr-25 12:31N 51°48' E 004°35'5 9.4
2017-Apr-25 12:00N 51°44' E 004°38'3 6.5
2017-Apr-25 11:30N 51°41' E 004°36'0 0.0
2017-Apr-25 11:00N 51°41' E 004°36'0 0.0
2017-Apr-25 10:30N 51°41' E 004°36'0 0.0
2017-Apr-25 10:00N 51°41' E 004°36'0 0.0
2017-Apr-25 09:30N 51°41' E 004°36'0 0.0
2017-Apr-25 09:00N 51°41' E 004°36'0 0.0
2017-Apr-25 08:30N 51°41' E 004°36'0 0.0
2017-Apr-25 08:00N 51°41' E 004°36'0 0.0
2017-Apr-25 07:30N 51°41' E 004°36'0 0.0
2017-Apr-25 07:00N 51°41' E 004°36'0 0.0
2017-Apr-25 06:29N 51°41' E 004°36'0 0.0
2017-Apr-25 06:00N 51°41' E 004°36'0 0.0
2017-Apr-25 05:30N 51°41' E 004°36'0 0.0
2017-Apr-25 05:00N 51°41' E 004°36'0 0.0
2017-Apr-25 04:30N 51°41' E 004°36'0 0.0
2017-Apr-25 04:00N 51°41' E 004°36'0 0.0
2017-Apr-25 03:30N 51°41' E 004°36'0 0.0
2017-Apr-25 03:00N 51°41' E 004°36'0 0.0
2017-Apr-25 02:30N 51°41' E 004°36'0 0.0
2017-Apr-25 02:00N 51°41' E 004°36'0 0.0
2017-Apr-25 01:30N 51°41' E 004°36'0 0.0
2017-Apr-25 01:00N 51°41' E 004°36'0 0.0
2017-Apr-25 00:30N 51°41' E 004°36'0 0.0
2017-Apr-25 00:00N 51°41' E 004°36'0 0.0
2017-Apr-24 23:30N 51°41' E 004°36'0 0.0
2017-Apr-24 23:00N 51°41' E 004°36'0 0.0
2017-Apr-24 22:30N 51°41' E 004°36'0 0.3
2017-Apr-24 22:00N 51°41' E 004°36'0 0.0
2017-Apr-24 21:30N 51°41' E 004°36'0 0.0
2017-Apr-24 21:00N 51°41' E 004°36'0 0.0
2017-Apr-24 20:30N 51°41' E 004°36'0 0.0
2017-Apr-24 20:00N 51°41' E 004°36'0 0.0
2017-Apr-24 19:28N 51°41' E 004°36'0 0.0
2017-Apr-24 19:00N 51°41' E 004°36'0 0.0
2017-Apr-24 18:30N 51°41' E 004°36'0 0.0
2017-Apr-24 18:00N 51°41' E 004°36'0 0.0
2017-Apr-24 17:30N 51°41' E 004°36'0 0.0
2017-Apr-24 17:00N 51°41' E 004°36'0 0.0
2017-Apr-24 16:30N 51°41' E 004°36'0 0.0
2017-Apr-24 16:00N 51°41' E 004°36'0 0.0
2017-Apr-24 15:30N 51°41' E 004°36'0 0.0
2017-Apr-24 15:00N 51°41' E 004°36'0 0.0
2017-Apr-24 14:30N 51°41' E 004°36'0 0.0
2017-Apr-24 13:30N 51°41' E 004°36'0 0.0
2017-Apr-24 13:00N 51°41' E 004°36'0 0.0
2017-Apr-24 12:30N 51°41' E 004°36'0 0.0
2017-Apr-24 12:00N 51°41' E 004°36'0 0.0
2017-Apr-24 11:30N 51°41' E 004°36'0 0.0
2017-Apr-24 11:00N 51°41' E 004°36'0 0.0
2017-Apr-24 10:30N 51°41' E 004°36'0 0.0
2017-Apr-24 10:00N 51°41' E 004°36'0 0.1
2017-Apr-24 09:30N 51°41' E 004°36'0 0.1
2017-Apr-24 09:00N 51°41' E 004°36'0 0.0
2017-Apr-24 08:30N 51°41' E 004°36'0 0.0
2017-Apr-24 08:01N 51°41' E 004°36'0 0.0
2017-Apr-24 07:30N 51°41' E 004°36'0 0.0
2017-Apr-24 07:00N 51°41' E 004°36'0 0.0
2017-Apr-24 06:30N 51°41' E 004°36'0 0.0
2017-Apr-24 06:00N 51°41' E 004°36'0 0.0
2017-Apr-24 05:30N 51°41' E 004°36'0 0.0
2017-Apr-24 05:00N 51°41' E 004°36'0 0.0
2017-Apr-24 04:30N 51°41' E 004°36'0 0.0
2017-Apr-24 04:00N 51°41' E 004°36'0 0.1
2017-Apr-24 03:30N 51°41' E 004°36'0 0.1
2017-Apr-24 03:00N 51°41' E 004°36'0 0.0
2017-Apr-24 02:30N 51°41' E 004°36'0 0.0
2017-Apr-24 02:00N 51°41' E 004°36'0 0.0
2017-Apr-24 01:30N 51°41' E 004°36'0 0.0
2017-Apr-24 01:00N 51°41' E 004°36'0 0.0
2017-Apr-24 00:30N 51°41' E 004°36'0 0.0
2017-Apr-24 00:00N 51°41' E 004°36'0 0.0
2017-Apr-23 23:30N 51°41' E 004°36'0 0.0
2017-Apr-23 23:00N 51°41' E 004°36'0 0.0
2017-Apr-23 22:30N 51°41' E 004°36'0 0.0
2017-Apr-23 22:00N 51°41' E 004°36'0 0.0
2017-Apr-23 21:30N 51°41' E 004°36'0 0.0
2017-Apr-23 21:00N 51°41' E 004°36'0 0.0
2017-Apr-23 20:30N 51°41' E 004°36'0 0.0
2017-Apr-23 20:00N 51°41' E 004°36'0 0.0
2017-Apr-23 19:30N 51°41' E 004°36'0 0.0
2017-Apr-23 19:00N 51°41' E 004°36'0 0.0
2017-Apr-23 18:30N 51°41' E 004°36'0 0.0
2017-Apr-23 18:00N 51°41' E 004°36'0 0.0
2017-Apr-23 17:30N 51°41' E 004°36'0 0.0
2017-Apr-23 17:00N 51°41' E 004°36'0 0.0
2017-Apr-23 16:30N 51°41' E 004°36'0 0.0
2017-Apr-23 16:00N 51°41' E 004°36'0 0.0
2017-Apr-23 15:30N 51°41' E 004°36'0 0.0
2017-Apr-23 15:00N 51°41' E 004°36'0 0.0
2017-Apr-23 14:00N 51°41' E 004°36'0 0.0
2017-Apr-23 13:30N 51°41' E 004°36'0 0.0
2017-Apr-23 13:00N 51°41' E 004°36'0 0.0
2017-Apr-23 12:30N 51°41' E 004°36'0 0.0
2017-Apr-23 12:00N 51°41' E 004°36'0 0.0
2017-Apr-23 11:30N 51°41' E 004°36'0 0.0
2017-Apr-23 11:00N 51°41' E 004°36'0 0.0
2017-Apr-23 10:30N 51°41' E 004°36'0 0.0
2017-Apr-23 10:00N 51°41' E 004°36'0 0.0
2017-Apr-23 09:30N 51°41' E 004°36'0 0.0
2017-Apr-23 09:00N 51°41' E 004°36'0 0.0
2017-Apr-23 08:30N 51°41' E 004°36'0 0.0
2017-Apr-23 08:00N 51°41' E 004°36'0 0.0
2017-Apr-23 07:30N 51°41' E 004°36'0 0.0
2017-Apr-23 06:59N 51°41' E 004°36'0 0.0
2017-Apr-23 06:30N 51°41' E 004°36'0 0.0
2017-Apr-23 06:00N 51°41' E 004°36'0 0.0
2017-Apr-23 05:30N 51°41' E 004°36'0 0.0
2017-Apr-23 05:00N 51°41' E 004°36'0 0.0
2017-Apr-23 04:30N 51°41' E 004°36'0 0.0
2017-Apr-23 04:00N 51°41' E 004°36'0 0.0
2017-Apr-23 03:30N 51°41' E 004°36'0 0.0
2017-Apr-23 03:00N 51°41' E 004°36'0 0.0
2017-Apr-23 02:30N 51°41' E 004°36'0 0.0
2017-Apr-23 02:00N 51°41' E 004°36'0 0.0
2017-Apr-23 01:30N 51°41' E 004°36'0 0.0
2017-Apr-23 01:00N 51°41' E 004°36'0 0.0
2017-Apr-23 00:30N 51°41' E 004°36'0 0.0
2017-Apr-23 00:00N 51°41' E 004°36'0 0.0
2017-Apr-22 23:30N 51°41' E 004°36'0 0.0
2017-Apr-22 23:00N 51°41' E 004°36'0 0.0
2017-Apr-22 22:29N 51°41' E 004°36'0 0.0
2017-Apr-22 22:00N 51°41' E 004°36'0 0.0
2017-Apr-22 21:28N 51°41' E 004°36'0 0.0
2017-Apr-22 20:58N 51°41' E 004°36'0 0.0
2017-Apr-22 20:27N 51°41' E 004°36'0 0.0
2017-Apr-22 19:58N 51°41' E 004°36'0 0.0
2017-Apr-22 19:30N 51°41' E 004°36'0 0.0
2017-Apr-22 19:00N 51°41' E 004°36'0 0.0
2017-Apr-22 18:30N 51°41' E 004°36'0 0.2
2017-Apr-22 18:00N 51°41' E 004°36'0 0.0
2017-Apr-22 17:30N 51°41' E 004°36'0 0.0
2017-Apr-22 17:00N 51°41' E 004°36'0 0.0
2017-Apr-22 16:30N 51°41' E 004°36'0 0.0
2017-Apr-22 16:00N 51°41' E 004°36'0 0.0
2017-Apr-22 15:30N 51°41' E 004°36'0 0.0
2017-Apr-22 14:59N 51°41' E 004°36'0 0.0
2017-Apr-22 14:28N 51°41' E 004°36'0 0.0
2017-Apr-22 13:30N 51°41' E 004°36'0 0.3
2017-Apr-22 13:00N 51°41' E 004°36'0 0.0
2017-Apr-22 12:30N 51°41' E 004°36'0 0.0
2017-Apr-22 12:00N 51°41' E 004°36'0 0.0
2017-Apr-22 11:30N 51°41' E 004°36'0 0.0
2017-Apr-22 11:00N 51°41' E 004°36'0 0.0
2017-Apr-22 10:30N 51°41' E 004°36'0 0.1
2017-Apr-22 10:00N 51°41' E 004°36'3 5.7
2017-Apr-22 09:30N 51°44' E 004°38'4 8.6
2017-Apr-22 09:01N 51°48' E 004°37'4 8.5
2017-Apr-22 08:30N 51°50' E 004°31'5 9.9
2017-Apr-22 08:00N 51°51' E 004°23'4 8.4
2017-Apr-22 07:30N 51°54' E 004°19'612.6
2017-Apr-22 07:00N 51°57' E 004°10'713.3
2017-Apr-22 06:30N 51°60' E 004°00'713.5
2017-Apr-22 06:00N 52°01' E 003°49'7414.2
2017-Apr-22 00:48N 52°41' E 002°07'414.2
2017-Apr-22 00:30N 52°43' E 002°02'713.6
2017-Apr-22 00:01N 52°46' E 001°52'713.1
2017-Apr-21 23:31N 52°50' E 001°43'612.6
2017-Apr-21 23:00N 52°53' E 001°34'612.5
2017-Apr-21 22:31N 52°56' E 001°25'612.7
2017-Apr-21 22:01N 52°59' E 001°15'5613.0
2017-Apr-21 17:41N 53°35' E 000°03'316.9
2017-Apr-21 17:30N 53°36' W 000°02'6 7.4
2017-Apr-21 16:43N 53°38' W 000°11'0 0.6
2017-Apr-21 16:30N 53°38' W 000°12'0 0.0
2017-Apr-21 16:00N 53°38' W 000°12'0 0.0
2017-Apr-21 15:30N 53°38' W 000°12'0 0.0
2017-Apr-21 15:00N 53°38' W 000°12'0 0.0
2017-Apr-21 14:30N 53°38' W 000°12'0 0.0
2017-Apr-21 13:30N 53°38' W 000°12'0 0.0
2017-Apr-21 13:00N 53°38' W 000°12'0 0.0
2017-Apr-21 12:30N 53°38' W 000°12'0 0.0
2017-Apr-21 12:00N 53°38' W 000°12'0 0.0
2017-Apr-21 11:30N 53°38' W 000°12'0 0.0
2017-Apr-21 11:00N 53°38' W 000°12'0 0.0
2017-Apr-21 10:30N 53°38' W 000°12'0 0.0
2017-Apr-21 10:00N 53°38' W 000°12'0 0.0
2017-Apr-21 09:30N 53°38' W 000°12'0 0.0
2017-Apr-21 09:00N 53°38' W 000°12'0 0.0
2017-Apr-21 08:30N 53°38' W 000°12'0 0.3
2017-Apr-21 08:00N 53°38' W 000°11'1 1.5
2017-Apr-21 07:30N 53°38' W 000°10'510.3
2017-Apr-21 07:00N 53°36' W 000°02'712.7
2017-Apr-21 06:25N 53°33' E 000°09'47 9.2
2017-Apr-21 01:18N 53°02' E 001°08'3 9.8
2017-Apr-21 01:00N 53°01' E 001°13'5 9.9
2017-Apr-21 00:30N 52°60' E 001°20'5 9.9
2017-Apr-21 00:00N 52°58' E 001°28'510.1
2017-Apr-20 23:30N 52°55' E 001°35'611.0
2017-Apr-20 23:00N 52°52' E 001°43'713.0
2017-Apr-20 22:31N 52°49' E 001°52'714.0
2017-Apr-20 21:58N 52°45' E 002°02'6813.6
2017-Apr-20 16:55N 52°07' E 003°36'613.3
2017-Apr-20 16:30N 52°05' E 003°45'713.5
2017-Apr-20 16:00N 52°03' E 003°55'714.1
2017-Apr-20 15:30N 51°59' E 004°05'714.3
2017-Apr-20 15:00N 51°55' E 004°14'10 9.9
2017-Apr-20 14:00N 51°50' E 004°28'4 8.6
2017-Apr-20 13:30N 51°49' E 004°35'4 8.5
2017-Apr-20 13:00N 51°45' E 004°38'4 7.6
2017-Apr-20 12:30N 51°41' E 004°36'0 0.9
2017-Apr-20 12:00N 51°41' E 004°36'0 0.0
2017-Apr-20 11:28N 51°41' E 004°36'0 0.0
2017-Apr-20 11:00N 51°41' E 004°36'0 0.0
2017-Apr-20 10:30N 51°41' E 004°36'0 0.0
2017-Apr-20 09:59N 51°41' E 004°36'0 0.0
2017-Apr-20 09:30N 51°41' E 004°36'0 0.0
2017-Apr-20 09:00N 51°41' E 004°36'0 0.0
2017-Apr-20 07:58N 51°41' E 004°36'0 0.0
2017-Apr-20 07:23N 51°41' E 004°36'0 0.0
2017-Apr-20 06:59N 51°41' E 004°36'1 2.2
2017-Apr-20 06:30N 51°42' E 004°36'3 6.9
2017-Apr-20 06:00N 51°45' E 004°38'4 7.7
2017-Apr-20 05:30N 51°49' E 004°34'4 8.8
2017-Apr-20 05:01N 51°50' E 004°28'5 9.9
2017-Apr-20 04:31N 51°52' E 004°20'4 8.3
2017-Apr-20 04:01N 51°55' E 004°15'612.2
2017-Apr-20 03:31N 51°58' E 004°08'612.4
2017-Apr-20 03:01N 51°60' E 003°58'713.2
2017-Apr-20 02:31N 52°02' E 003°48'7414.0
2017-Apr-19 21:16N 52°41' E 002°06'413.7
2017-Apr-19 21:00N 52°43' E 002°01'713.5
2017-Apr-19 20:30N 52°47' E 001°52'713.1
2017-Apr-19 20:00N 52°50' E 001°42'612.8
2017-Apr-19 19:30N 52°53' E 001°33'612.8
2017-Apr-19 19:00N 52°56' E 001°23'713.1
2017-Apr-19 18:30N 52°59' E 001°14'5012.8
2017-Apr-19 14:34N 53°33' E 000°11'114.0
2017-Apr-19 14:30N 53°33' E 000°09'1212.3
2017-Apr-19 13:30N 53°38' W 000°09'1 2.3
2017-Apr-19 12:59N 53°38' W 000°11'0 0.3
2017-Apr-19 12:30N 53°38' W 000°12'0 0.0
2017-Apr-19 12:00N 53°38' W 000°12'0 0.0
2017-Apr-19 11:30N 53°38' W 000°12'0 0.0
2017-Apr-19 11:00N 53°38' W 000°12'0 0.0
2017-Apr-19 10:30N 53°38' W 000°12'0 0.0
2017-Apr-19 09:59N 53°38' W 000°12'0 0.0
2017-Apr-19 09:14N 53°38' W 000°12'0 0.0
2017-Apr-19 08:57N 53°38' W 000°12'0 0.0
2017-Apr-19 08:30N 53°38' W 000°12'0 0.0
2017-Apr-19 08:00N 53°38' W 000°12'0 0.0
2017-Apr-19 07:30N 53°38' W 000°12'0 0.0
2017-Apr-19 06:59N 53°38' W 000°12'0 0.0
2017-Apr-19 06:30N 53°38' W 000°12'0 0.0
2017-Apr-19 06:00N 53°38' W 000°12'0 0.0
2017-Apr-19 05:30N 53°38' W 000°12'0 0.0
2017-Apr-19 05:00N 53°38' W 000°12'0 0.3
2017-Apr-19 04:30N 53°38' W 000°11'1 1.2
2017-Apr-19 04:00N 53°38' W 000°10'5 9.1
2017-Apr-19 03:30N 53°36' W 000°03'910.3
2017-Apr-19 02:39N 53°33' E 000°10'4612.6
2017-Apr-18 22:59N 53°02' E 001°08'612.8
2017-Apr-18 22:30N 53°00' E 001°18'612.9
2017-Apr-18 22:00N 52°57' E 001°27'713.3
2017-Apr-18 21:30N 52°54' E 001°37'714.1
2017-Apr-18 21:00N 52°51' E 001°47'4214.1
2017-Apr-18 18:01N 52°28' E 002°46'113.6
2017-Apr-18 17:55N 52°27' E 002°48'613.1
2017-Apr-18 17:29N 52°24' E 002°55'612.8
2017-Apr-18 16:59N 52°21' E 003°04'612.5
2017-Apr-18 16:30N 52°17' E 003°12'612.3
2017-Apr-18 15:59N 52°13' E 003°21'612.3
2017-Apr-18 15:28N 52°10' E 003°29'612.6
2017-Apr-18 15:00N 52°07' E 003°37'1413.7
2017-Apr-18 14:00N 52°02' E 003°58'714.5
2017-Apr-18 13:30N 51°58' E 004°08'713.7
2017-Apr-18 13:00N 51°54' E 004°17'510.0
2017-Apr-18 12:30N 51°51' E 004°23'611.1
2017-Apr-18 12:00N 51°50' E 004°32'5 9.3
2017-Apr-18 11:30N 51°47' E 004°38'5 9.5
2017-Apr-18 11:00N 51°42' E 004°37'1 2.7
2017-Apr-18 10:30N 51°41' E 004°36'0 0.0
2017-Apr-18 10:00N 51°41' E 004°36'0 0.0
2017-Apr-18 01:41N 51°41' E 004°36'0 0.0
2017-Apr-18 01:20N 51°41' E 004°36'0 0.0
2017-Apr-18 00:59N 51°41' E 004°36'0 0.0
2017-Apr-18 00:14N 51°41' E 004°36'0 0.0
2017-Apr-17 23:56N 51°41' E 004°36'0 0.0
2017-Apr-17 21:29N 51°41' E 004°36'0 0.0
2017-Apr-17 16:56N 51°41' E 004°36'  

Dump ship's entire track history